Time;durP1;ratioP1;P1;durP2;ratioP2;P2;SDS_P1;SDS_P2;PMS_P1;PMS_P2;Temp;Humidity;BMP_temperature;BMP_pressure;BME280_temperature;BME280_humidity;BME280_pressure;Samples;Min_cycle;Max_cycle;Signal;HPM_P1;HPM_P2
2022/07/02 01:12:12;;;;;;;5.90;2.60;;;;;;;11.97;85.38;101452.79;108063;1280;59526;-89
2022/07/02 01:21:11;;;;;;;4.10;2.60;;;;;;;11.95;85.60;101460.38;107963;1281;72490;-88
2022/07/02 03:40:04;;;;;;;3.90;3.10;;;;;;;11.40;89.04;101533.49;108011;1272;59185;-87
2022/07/02 05:29:12;;;;;;;4.70;2.10;;;;;;;15.83;73.10;101584.79;108047;1269;67972;-86
2022/07/02 05:31:42;;;;;;;6.50;2.20;;;;;;;15.93;72.27;101586.42;108041;1279;74598;-87
2022/07/02 05:34:10;;;;;;;3.50;2.00;;;;;;;16.02;72.01;101586.38;107933;1279;62498;-87
2022/07/02 05:36:37;;;;;;;4.70;2.00;;;;;;;16.11;71.25;101583.30;108049;1279;60341;-87
2022/07/02 05:39:05;;;;;;;3.30;1.80;;;;;;;16.24;71.09;101586.84;107776;1280;74576;-87
2022/07/02 05:41:32;;;;;;;4.90;1.90;;;;;;;16.37;70.34;101590.23;107873;1280;70178;-84
2022/07/02 05:44:07;;;;;;;3.50;1.70;;;;;;;16.49;69.97;101588.16;108019;1279;75600;-86
2022/07/02 05:46:37;;;;;;;3.50;1.50;;;;;;;16.62;69.64;101593.67;107981;1279;63221;-86
2022/07/02 05:49:05;;;;;;;5.90;1.80;;;;;;;16.76;69.31;101596.14;107672;1281;61125;-86
2022/07/02 05:51:36;;;;;;;5.70;1.80;;;;;;;16.88;68.86;101596.21;107856;1279;75948;-86
2022/07/02 05:54:08;;;;;;;4.80;1.90;;;;;;;17.02;68.28;101599.02;108289;1279;72824;-86
2022/07/02 05:56:36;;;;;;;3.30;1.60;;;;;;;17.13;67.23;101599.41;107776;1279;73574;-86
2022/07/02 05:59:04;;;;;;;5.90;2.00;;;;;;;17.20;66.90;101596.81;107814;1279;62186;-86
2022/07/02 06:01:46;;;;;;;4.10;1.40;;;;;;;17.28;66.24;101600.75;107752;1280;61088;-87
2022/07/02 06:04:14;;;;;;;3.20;1.50;;;;;;;17.40;65.74;101609.80;107784;1281;74942;-87
2022/07/02 06:09:30;;;;;;;3.60;1.60;;;;;;;17.60;65.15;101609.88;107785;1279;73279;-86
2022/07/02 06:12:00;;;;;;;4.50;1.30;;;;;;;17.71;64.54;101610.95;108015;1279;63055;-87
2022/07/02 06:14:28;;;;;;;3.90;1.50;;;;;;;17.80;63.77;101608.19;107885;1279;60700;-86
2022/07/02 06:17:07;;;;;;;;;;;;;;;;;;;;;
2022/07/02 06:19:38;;;;;;;3.10;1.30;;;;;;;18.05;63.18;101603.35;107951;1279;72480;-87
2022/07/02 06:22:06;;;;;;;4.20;1.40;;;;;;;18.18;62.26;101608.04;107804;1279;73466;-87
2022/07/02 06:24:36;;;;;;;3.80;1.60;;;;;;;18.31;61.88;101608.77;107904;1280;64220;-86
2022/07/02 06:27:08;;;;;;;2.80;1.30;;;;;;;18.46;61.99;101611.86;107855;1279;59201;-87
2022/07/02 06:29:35;;;;;;;3.60;1.30;;;;;;;18.64;61.55;101611.63;107730;1281;76868;-86
2022/07/02 06:32:03;;;;;;;3.90;1.20;;;;;;;18.77;60.27;101612.88;107691;1281;71534;-86
2022/07/02 06:34:30;;;;;;;4.50;1.30;;;;;;;18.88;60.22;101609.30;108017;1279;73571;-87
2022/07/02 06:37:01;;;;;;;4.40;1.20;;;;;;;19.01;60.46;101609.29;107626;1281;60906;-86
2022/07/02 06:39:28;;;;;;;3.60;1.10;;;;;;;19.16;59.13;101612.86;107802;1279;62148;-87
2022/07/02 06:44:43;;;;;;;3.70;1.00;;;;;;;19.35;57.08;101615.80;107877;1279;72417;-87
2022/07/02 06:47:10;;;;;;;2.60;1.00;;;;;;;19.48;56.94;101619.38;107787;1279;74467;-86
2022/07/02 06:49:38;;;;;;;3.00;0.90;;;;;;;19.59;55.86;101620.58;107633;1281;60207;-87
2022/07/02 06:52:05;;;;;;;3.40;0.90;;;;;;;19.72;55.48;101623.98;107524;1281;60724;-87
2022/07/02 06:54:33;;;;;;;4.60;0.90;;;;;;;19.83;55.02;101624.34;107780;1279;74051;-87
2022/07/02 06:57:00;;;;;;;2.90;0.80;;;;;;;19.94;54.54;101617.33;107846;1279;72352;-87
2022/07/02 06:59:27;;;;;;;3.30;1.00;;;;;;;20.06;52.54;101617.47;107710;1279;73002;-86
2022/07/02 07:01:55;;;;;;;3.40;0.80;;;;;;;20.13;51.15;101612.17;107973;1279;60364;-87
2022/07/02 07:04:38;;;;;;;3.60;0.90;;;;;;;20.23;51.55;101609.87;107844;1279;60586;-87
2022/07/02 07:07:08;;;;;;;3.30;0.70;;;;;;;20.38;51.38;101609.81;107844;1281;76237;-87
2022/07/02 07:09:35;;;;;;;2.30;0.50;;;;;;;20.51;50.67;101612.81;108250;1279;71231;-87
2022/07/02 07:12:06;;;;;;;2.30;0.60;;;;;;;20.66;48.57;101618.07;108076;1279;72140;-87
2022/07/02 07:14:36;;;;;;;2.30;0.60;;;;;;;20.78;48.12;101617.38;108158;1279;61581;-86
2022/07/02 07:17:04;;;;;;;4.00;0.60;;;;;;;20.90;47.50;101620.43;107979;1280;60519;-87
2022/07/02 07:19:32;;;;;;;3.50;0.60;;;;;;;20.96;46.63;101621.59;107866;1279;75717;-87
2022/07/02 07:21:59;;;;;;;3.20;0.70;;;;;;;21.00;46.49;101626.61;107680;1279;70096;-87
2022/07/02 07:24:26;;;;;;;2.40;0.60;;;;;;;21.05;46.10;101629.93;107675;1280;74198;-85
2022/07/02 07:26:57;;;;;;;1.50;0.70;;;;;;;21.09;45.84;101634.29;107747;1280;60572;-89
2022/07/02 07:29:24;;;;;;;2.00;0.50;;;;;;;21.20;46.19;101628.36;107976;1276;60458;-89
2022/07/02 07:31:54;;;;;;;1.70;0.60;;;;;;;21.30;44.06;101632.09;107595;1273;75138;-88
2022/07/02 07:34:22;;;;;;;4.60;0.80;;;;;;;21.40;43.43;101632.22;107577;1271;71364;-88
2022/07/02 07:36:55;;;;;;;3.20;0.60;;;;;;;21.46;43.12;101629.32;107557;1271;73809;-88
2022/07/02 07:39:22;;;;;;;4.30;0.70;;;;;;;21.57;43.29;101625.43;107711;1271;61697;-89
2022/07/02 07:41:49;;;;;;;2.20;0.80;;;;;;;21.66;43.31;101633.56;107891;1279;60803;-89
2022/07/02 07:44:16;;;;;;;2.40;0.70;;;;;;;21.68;43.09;101630.94;107965;1279;74100;-89
2022/07/02 07:46:43;;;;;;;2.90;0.60;;;;;;;21.82;44.26;101632.73;107947;1278;70960;-89
2022/07/02 07:49:11;;;;;;;2.50;0.70;;;;;;;21.98;43.33;101634.43;107981;1279;73245;-89
2022/07/02 07:51:38;;;;;;;3.50;0.50;;;;;;;22.10;42.33;101635.40;107917;1279;59834;-89
2022/07/02 07:54:06;;;;;;;3.20;0.70;;;;;;;22.11;41.03;101636.89;108017;1280;60073;-90
2022/07/02 07:56:44;;;;;;;1.70;0.50;;;;;;;22.11;41.20;101632.94;107950;1271;77025;-89
2022/07/02 07:59:11;;;;;;;1.90;0.50;;;;;;;22.15;41.56;101635.63;107951;1280;73041;-89
2022/07/02 08:01:38;;;;;;;1.60;0.50;;;;;;;22.24;41.20;101640.23;107974;1279;72847;-89
2022/07/02 08:04:06;;;;;;;2.10;0.70;;;;;;;22.21;40.68;101641.98;107902;1279;60222;-89
2022/07/02 08:06:33;;;;;;;1.90;0.80;;;;;;;22.18;40.88;101648.16;107672;1281;59998;-90
2022/07/02 08:09:04;;;;;;;1.90;0.60;;;;;;;22.25;40.83;101651.11;107834;1281;75041;-90
2022/07/02 08:11:33;;;;;;;3.60;0.80;;;;;;;22.32;40.74;101648.23;107811;1275;72647;-89
2022/07/02 08:14:04;;;;;;;3.60;0.70;;;;;;;22.44;41.22;101640.98;107674;1279;74102;-89
2022/07/02 08:16:32;;;;;;;1.30;0.50;;;;;;;22.52;40.61;101636.90;107779;1281;61880;-89
2022/07/02 08:18:59;;;;;;;2.80;0.70;;;;;;;22.55;40.17;101639.95;107787;1281;60346;-89
2022/07/02 08:21:26;;;;;;;2.70;0.60;;;;;;;22.60;40.24;101642.95;107865;1280;74974;-89
2022/07/02 08:23:57;;;;;;;2.10;0.70;;;;;;;22.71;40.18;101643.23;107534;1271;71423;-89
2022/07/02 08:26:24;;;;;;;3.30;0.80;;;;;;;22.80;39.64;101644.52;107740;1276;73045;-89
2022/07/02 08:28:51;;;;;;;3.10;0.70;;;;;;;22.93;39.72;101644.23;107822;1279;60341;-89
2022/07/02 08:31:18;;;;;;;2.10;0.70;;;;;;;23.00;39.31;101640.73;107690;1279;60917;-89
2022/07/02 08:33:45;;;;;;;2.50;0.60;;;;;;;23.11;39.58;101628.13;107819;1277;74955;-88
2022/07/02 08:36:12;;;;;;;1.50;0.60;;;;;;;23.17;39.18;101631.39;107480;1272;73472;-88
2022/07/02 08:38:39;;;;;;;3.10;0.70;;;;;;;23.20;39.05;101629.80;107755;1268;75348;-89
2022/07/02 08:41:08;;;;;;;2.40;0.70;;;;;;;23.30;39.19;101633.79;107571;1281;61667;-89
2022/07/02 08:43:36;;;;;;;3.90;0.80;;;;;;;23.28;38.82;101639.73;107866;1281;61344;-89
2022/07/02 08:46:07;;;;;;;2.80;0.70;;;;;;;23.25;38.82;101635.80;107829;1280;76107;-90
2022/07/02 08:53:41;;;;;;;2.40;0.70;;;;;;;23.47;39.39;101630.27;107603;1281;60388;-89
2022/07/02 08:56:09;;;;;;;1.20;0.50;;;;;;;23.57;37.93;101630.21;107480;1277;61538;-88
2022/07/02 08:58:37;;;;;;;3.00;0.70;;;;;;;23.54;37.38;101619.63;107867;1273;78836;-89
2022/07/02 09:01:09;;;;;;;2.30;0.70;;;;;;;23.61;37.96;101615.88;107845;1281;74846;-89
2022/07/02 09:03:37;;;;;;;2.90;0.90;;;;;;;23.72;37.92;101622.48;107838;1274;73731;-89
2022/07/02 09:06:08;;;;;;;2.90;0.70;;;;;;;23.83;38.22;101614.08;107801;1269;60802;-89
2022/07/02 09:08:35;;;;;;;3.40;0.70;;;;;;;24.09;38.30;101614.14;107730;1281;60791;-89
2022/07/02 09:11:05;;;;;;;3.10;0.80;;;;;;;24.33;37.73;101608.04;107885;1281;76793;-89
2022/07/02 09:13:33;;;;;;;2.90;0.70;;;;;;;24.45;37.05;101605.77;107852;1281;71509;-89
2022/07/02 09:16:00;;;;;;;3.80;0.80;;;;;;;24.56;36.80;101610.86;107801;1280;72911;-89
2022/07/02 09:18:28;;;;;;;3.40;0.90;;;;;;;24.59;36.54;101608.45;107670;1271;61043;-90
2022/07/02 09:20:55;;;;;;;2.10;0.60;;;;;;;24.69;35.97;101607.42;107708;1277;60736;-88
2022/07/02 09:23:22;;;;;;;2.20;0.60;;;;;;;24.72;35.61;101605.84;107820;1281;77567;-89
2022/07/02 09:25:50;;;;;;;1.60;0.70;;;;;;;24.73;35.56;101603.59;107655;1275;71448;-89
2022/07/02 09:28:18;;;;;;;2.30;0.80;;;;;;;24.87;35.76;101595.15;107593;1281;72494;-89
2022/07/02 09:30:45;;;;;;;3.40;0.70;;;;;;;25.01;35.56;101593.67;107566;1281;61218;-89
2022/07/02 09:33:30;;;;;;;2.90;0.80;;;;;;;25.21;35.40;101589.19;107681;1279;61515;-89
2022/07/02 09:35:59;;;;;;;2.20;0.50;;;;;;;25.27;34.95;101591.45;107883;1279;75771;-89
2022/07/02 09:38:26;;;;;;;3.90;0.80;;;;;;;25.30;34.78;101588.92;107644;1281;71542;-89
2022/07/02 09:40:55;;;;;;;2.90;0.70;;;;;;;25.33;34.78;101586.97;107636;1279;74037;-89
2022/07/02 09:43:26;;;;;;;2.80;0.50;;;;;;;25.26;34.61;101585.69;107627;1281;60833;-89
2022/07/02 09:45:54;;;;;;;1.50;0.60;;;;;;;25.39;33.98;101582.77;107687;1281;60971;-89
2022/07/02 09:48:21;;;;;;;2.90;0.70;;;;;;;25.51;33.98;101577.68;107528;1279;74636;-89
2022/07/02 09:50:48;;;;;;;1.30;0.40;;;;;;;25.63;34.16;101572.93;107645;1281;71757;-88
2022/07/02 09:53:15;;;;;;;1.30;0.40;;;;;;;25.82;33.19;101581.19;107893;1279;74683;-88
2022/07/02 09:55:48;;;;;;;2.60;0.50;;;;;;;25.88;32.77;101584.63;107596;1281;62028;-89
2022/07/02 09:58:23;;;;;;;2.00;0.50;;;;;;;26.03;33.29;101581.80;107898;1279;61484;-89
2022/07/02 10:00:50;;;;;;;1.60;0.60;;;;;;;26.36;33.85;101574.70;107610;1279;76032;-88
2022/07/02 10:03:18;;;;;;;2.40;0.60;;;;;;;26.47;32.64;101574.84;107956;1279;69367;-89
2022/07/02 10:05:48;;;;;;;1.90;0.60;;;;;;;26.62;32.48;101570.56;107777;1279;73048;-88
2022/07/02 10:08:16;;;;;;;1.60;0.40;;;;;;;26.85;31.47;101574.44;107814;1280;60563;-88
2022/07/02 10:10:43;;;;;;;2.20;0.50;;;;;;;27.01;30.64;101572.02;107789;1279;61289;-88
2022/07/02 10:13:12;;;;;;;2.40;0.60;;;;;;;27.08;30.44;101565.63;107924;1279;74986;-88
2022/07/02 10:15:53;;;;;;;2.10;0.50;;;;;;;27.22;30.81;101563.75;107793;1279;69899;-88
2022/07/02 10:18:24;;;;;;;3.20;0.60;;;;;;;27.13;30.36;101565.18;107783;1279;73070;-88
2022/07/02 10:20:56;;;;;;;1.60;0.40;;;;;;;27.08;30.51;101562.20;107783;1279;60512;-89
2022/07/02 10:23:24;;;;;;;2.20;0.50;;;;;;;27.22;30.11;101555.85;107791;1279;61057;-89
2022/07/02 10:25:52;;;;;;;2.20;0.70;;;;;;;27.38;30.15;101561.88;107731;1279;75967;-88
2022/07/02 10:28:19;;;;;;;2.90;0.50;;;;;;;27.52;29.75;101557.50;107793;1279;71487;-88
2022/07/02 10:30:46;;;;;;;1.90;0.40;;;;;;;27.35;29.45;101563.48;107794;1279;74314;-89
2022/07/02 10:33:25;;;;;;;2.00;0.50;;;;;;;27.08;30.26;101556.42;107797;1279;62743;-89
2022/07/02 10:35:53;;;;;;;1.70;0.50;;;;;;;27.04;30.57;101548.51;107899;1279;60206;-88
2022/07/02 10:38:29;;;;;;;1.20;0.40;;;;;;;27.17;30.43;101547.77;107626;1281;74941;-87
2022/07/02 10:40:57;;;;;;;1.80;0.60;;;;;;;27.41;30.95;101538.94;107616;1281;72443;-88
2022/07/02 10:43:26;;;;;;;1.60;0.40;;;;;;;27.71;30.01;101534.64;107662;1280;73990;-88
2022/07/02 10:46:06;;;;;;;1.60;0.40;;;;;;;27.66;28.71;101537.86;107776;1279;61282;-88
2022/07/02 10:48:54;;;;;;;2.20;0.50;;;;;;;27.63;27.85;101534.59;107703;1279;60521;-88
2022/07/02 10:51:29;;;;;;;1.50;0.40;;;;;;;27.53;28.09;101534.08;107926;1279;76398;-88
2022/07/02 10:54:01;;;;;;;1.50;0.30;;;;;;;27.68;29.15;101533.66;107782;1279;71417;-88
2022/07/02 10:56:29;;;;;;;1.30;0.50;;;;;;;27.85;28.05;101529.17;107826;1279;73238;-87
2022/07/02 10:58:56;;;;;;;2.60;0.50;;;;;;;27.73;28.79;101530.79;107741;1279;60646;-88
2022/07/02 11:01:26;;;;;;;1.90;0.60;;;;;;;27.60;28.98;101537.56;107925;1279;59608;-88
2022/07/02 11:03:56;;;;;;;1.90;0.60;;;;;;;27.59;29.42;101536.54;107869;1279;75430;-88
2022/07/02 11:06:24;;;;;;;1.80;0.60;;;;;;;27.52;29.34;101537.77;107967;1279;72857;-88
2022/07/02 11:08:56;;;;;;;3.00;0.50;;;;;;;27.62;29.54;101533.32;107626;1279;73149;-88
2022/07/02 11:11:29;;;;;;;1.90;0.50;;;;;;;27.47;29.52;101531.82;107887;1279;59647;-88
2022/07/02 11:14:00;;;;;;;2.20;0.60;;;;;;;27.56;30.01;101524.91;107890;1279;60295;-88
2022/07/02 11:16:29;;;;;;;1.50;0.70;;;;;;;27.56;29.95;101529.88;107862;1279;75109;-88
2022/07/02 11:19:00;;;;;;;3.90;0.70;;;;;;;27.30;30.01;101531.42;107960;1279;74743;-88
2022/07/02 11:21:29;;;;;;;1.90;0.50;;;;;;;27.09;30.25;101524.51;107669;1279;73834;-88
2022/07/02 11:23:56;;;;;;;1.40;0.50;;;;;;;26.96;31.60;101523.73;107650;1279;60364;-88
2022/07/02 11:26:25;;;;;;;1.80;0.60;;;;;;;26.95;31.83;101519.65;107808;1279;60248;-88
2022/07/02 11:28:53;;;;;;;1.90;0.50;;;;;;;27.24;32.06;101522.67;107914;1279;74927;-88
2022/07/02 11:31:22;;;;;;;1.90;0.80;;;;;;;27.62;30.94;101518.66;107725;1279;70509;-88
2022/07/02 11:33:52;;;;;;;1.70;0.60;;;;;;;27.67;29.95;101523.58;107853;1279;73450;-89
2022/07/02 11:36:25;;;;;;;2.90;0.60;;;;;;;27.39;29.64;101517.63;107710;1277;59970;-88
2022/07/02 11:38:53;;;;;;;3.00;0.60;;;;;;;27.16;30.51;101512.66;107562;1281;62111;-89
2022/07/02 11:41:34;;;;;;;2.00;0.60;;;;;;;27.13;31.15;101510.02;107881;1278;75525;-88
2022/07/02 11:44:11;;;;;;;1.70;0.50;;;;;;;27.32;31.14;101502.98;107912;1279;72381;-88
2022/07/02 11:46:38;;;;;;;2.10;0.60;;;;;;;27.61;31.16;101495.55;107795;1278;73833;-88
2022/07/02 11:49:15;;;;;;;1.50;0.50;;;;;;;27.76;30.57;101490.05;108192;1279;60366;-88
2022/07/02 11:51:42;;;;;;;1.00;0.50;;;;;;;27.79;30.62;101491.42;108043;1279;61008;-88
2022/07/02 11:54:10;;;;;;;1.50;0.50;;;;;;;27.86;30.84;101490.96;108197;1279;75408;-87
2022/07/02 11:56:40;;;;;;;4.90;1.20;;;;;;;28.10;30.61;101476.89;108101;1279;72337;-88
2022/07/02 11:59:18;;;;;;;2.30;0.90;;;;;;;28.46;29.77;101478.77;108177;1279;72919;-88
2022/07/02 12:01:46;;;;;;;1.70;0.60;;;;;;;28.73;29.13;101472.59;108065;1279;61178;-88
2022/07/02 12:04:16;;;;;;;1.30;0.50;;;;;;;29.03;28.96;101475.10;107871;1279;60363;-88
2022/07/02 12:06:45;;;;;;;2.30;0.70;;;;;;;29.27;28.80;101473.64;107664;1279;76132;-88
2022/07/02 12:09:25;;;;;;;1.40;0.60;;;;;;;29.41;28.14;101474.64;107786;1279;72556;-87
2022/07/02 12:11:55;;;;;;;1.10;0.50;;;;;;;29.34;28.68;101461.19;107996;1279;73383;-88
2022/07/02 12:14:29;;;;;;;3.70;0.60;;;;;;;29.19;28.78;101467.84;107652;1279;60711;-89
2022/07/02 12:16:57;;;;;;;1.20;0.60;;;;;;;29.38;28.47;101459.02;107810;1279;61983;-87
2022/07/02 12:19:32;;;;;;;1.50;0.50;;;;;;;29.94;27.29;101454.31;107831;1279;72955;-88
2022/07/02 12:22:00;;;;;;;2.20;0.60;;;;;;;30.57;27.90;101445.65;107847;1279;72962;-89
2022/07/02 12:24:31;;;;;;;2.00;0.50;;;;;;;31.10;26.18;101447.64;107541;1278;73059;-87
2022/07/02 12:27:03;;;;;;;2.50;0.50;;;;;;;31.25;26.01;101443.05;107529;1281;61247;-88
2022/07/02 12:32:31;;;;;;;2.20;0.70;;;;;;;30.27;26.12;101442.73;108177;1280;75763;-88
2022/07/02 12:35:10;;;;;;;1.90;0.50;;;;;;;30.45;26.06;101446.01;108136;1279;71470;-88
2022/07/02 12:37:47;;;;;;;2.40;0.60;;;;;;;30.81;26.06;101435.94;108144;1279;73464;-88
2022/07/02 12:40:16;;;;;;;1.30;0.40;;;;;;;31.36;25.78;101438.21;107838;1279;60406;-88
2022/07/02 12:42:50;;;;;;;1.60;0.50;;;;;;;31.85;25.29;101432.69;107829;1272;59093;-88
2022/07/02 12:45:31;;;;;;;2.10;0.60;;;;;;;32.16;24.44;101432.42;107801;1279;75957;-88
2022/07/02 12:48:10;;;;;;;2.30;0.70;;;;;;;32.41;24.12;101428.04;107844;1279;71104;-88
2022/07/02 12:50:39;;;;;;;2.10;0.40;;;;;;;32.26;24.61;101423.63;107893;1279;74441;-88
2022/07/02 12:53:09;;;;;;;2.90;0.60;;;;;;;32.02;24.76;101425.70;107706;1280;60840;-87
2022/07/02 12:55:39;;;;;;;1.00;0.40;;;;;;;31.86;25.24;101425.65;107933;1278;60344;-88
2022/07/02 12:58:08;;;;;;;1.80;0.40;;;;;;;31.67;25.12;101427.71;107651;1278;74970;-88
2022/07/02 13:00:37;;;;;;;1.50;0.50;;;;;;;31.48;25.36;101419.69;107658;1279;70834;-87
2022/07/02 13:03:11;;;;;;;1.30;0.40;;;;;;;31.44;25.02;101417.81;107899;1279;74141;-87
2022/07/02 13:05:50;;;;;;;1.50;0.60;;;;;;;31.93;24.64;101417.23;107963;1278;62068;-87
2022/07/02 13:08:20;;;;;;;2.10;0.40;;;;;;;33.08;24.17;101413.89;107773;1278;62475;-87
2022/07/02 13:10:49;;;;;;;2.30;0.50;;;;;;;34.53;22.07;101407.38;107870;1279;76622;-88
2022/07/02 13:13:17;;;;;;;2.90;0.40;;;;;;;34.25;22.28;101404.58;107965;1279;73509;-87
2022/07/02 13:15:45;;;;;;;1.60;0.50;;;;;;;33.49;23.19;101404.19;107775;1279;73850;-88
2022/07/02 13:18:12;;;;;;;0.80;0.40;;;;;;;32.61;23.54;101399.20;107275;1279;602870;-88
2022/07/02 13:20:40;;;;;;;1.50;0.40;;;;;;;31.87;24.84;101396.75;107772;1278;60726;-88
2022/07/02 13:23:07;;;;;;;1.00;0.40;;;;;;;31.24;25.30;101391.61;107983;1278;75041;-88
2022/07/02 13:25:34;;;;;;;2.10;0.70;;;;;;;30.68;26.14;101385.77;108058;1279;72688;-88
2022/07/02 13:28:03;;;;;;;5.60;2.40;;;;;;;30.29;26.67;101387.48;108070;1279;71966;-88
2022/07/02 13:30:30;;;;;;;1.10;0.50;;;;;;;29.86;27.41;101388.02;107887;1279;60685;-86
2022/07/02 13:32:58;;;;;;;4.50;3.50;;;;;;;30.89;26.62;101376.46;107996;1279;58964;-86
2022/07/02 13:35:24;;;;;;;2.40;0.40;;;;;;;31.85;25.75;101372.32;107759;1279;74760;-87
2022/07/02 13:37:51;;;;;;;1.00;0.40;;;;;;;33.01;23.94;101366.60;107954;1279;71891;-87
2022/07/02 13:40:18;;;;;;;2.40;0.60;;;;;;;34.32;22.51;101361.11;107483;1279;72691;-87
2022/07/02 13:42:45;;;;;;;1.40;0.40;;;;;;;35.54;21.78;101354.94;107956;1279;60206;-87
2022/07/02 13:45:12;;;;;;;2.70;0.40;;;;;;;36.07;20.77;101352.37;107824;1279;61906;-88
2022/07/02 13:47:40;;;;;;;3.40;0.60;;;;;;;35.58;21.00;101352.20;107830;1279;73949;-88
2022/07/02 13:50:07;;;;;;;0.90;0.40;;;;;;;35.67;20.83;101348.23;107919;1279;73490;-88
2022/07/02 13:52:34;;;;;;;2.00;0.50;;;;;;;35.37;20.83;101345.40;107812;1279;74621;-88
2022/07/02 13:55:01;;;;;;;1.40;0.30;;;;;;;34.85;21.54;101342.83;107862;1281;60713;-88
2022/07/02 13:57:28;;;;;;;2.20;0.30;;;;;;;35.56;21.34;101333.96;107782;1279;60870;-87
2022/07/02 13:59:54;;;;;;;1.10;0.30;;;;;;;36.78;19.44;101331.70;107797;1278;76159;-88
2022/07/02 14:02:21;;;;;;;2.60;0.50;;;;;;;37.30;19.01;101328.01;107728;1279;74378;-88
2022/07/02 14:04:52;;;;;;;1.80;0.50;;;;;;;36.70;19.48;101334.02;107626;1279;71828;-88
2022/07/02 14:07:19;;;;;;;2.60;0.80;;;;;;;36.47;19.42;101331.86;108029;1278;61613;-88
2022/07/02 14:09:46;;;;;;;1.50;0.40;;;;;;;36.93;19.28;101332.95;107893;1279;60242;-88
2022/07/02 14:12:14;;;;;;;1.00;0.40;;;;;;;37.64;18.85;101330.98;107859;1281;75458;-88
2022/07/02 14:14:40;;;;;;;1.10;0.40;;;;;;;38.75;17.40;101329.34;107967;1277;72203;-88
2022/07/02 14:17:08;;;;;;;1.50;0.50;;;;;;;39.49;16.47;101332.27;107612;1280;72911;-88
2022/07/02 14:19:36;;;;;;;1.90;0.40;;;;;;;40.12;16.13;101334.40;108022;1279;60219;-88
2022/07/02 14:22:03;;;;;;;0.50;0.10;;;;;;;40.63;15.44;101328.64;107733;1280;59704;-88
2022/07/02 14:24:30;;;;;;;1.50;0.30;;;;;;;41.27;15.18;101327.67;108045;1279;76015;-88
2022/07/02 14:26:57;;;;;;;3.30;0.40;;;;;;;41.77;15.05;101329.34;107906;1279;71365;-88
2022/07/02 14:29:24;;;;;;;1.50;0.30;;;;;;;42.33;14.30;101329.48;108037;1279;74274;-88
2022/07/02 14:31:52;;;;;;;3.10;0.30;;;;;;;42.00;14.79;101324.21;107723;1279;59959;-88
2022/07/02 14:34:20;;;;;;;1.40;0.40;;;;;;;41.34;14.73;101326.11;107781;1279;59760;-89
2022/07/02 14:36:47;;;;;;;1.80;0.30;;;;;;;39.88;16.07;101322.35;108130;1279;73945;-89
2022/07/02 14:39:16;;;;;;;1.10;0.40;;;;;;;39.02;16.45;101324.98;107849;1279;71281;-89
2022/07/02 14:41:44;;;;;;;1.30;0.50;;;;;;;38.38;17.01;101328.10;107732;1272;74179;-88
2022/07/02 14:44:11;;;;;;;1.80;0.60;;;;;;;38.88;16.52;101323.55;107906;1281;59598;-89
2022/07/02 14:46:39;;;;;;;2.10;0.30;;;;;;;39.39;16.47;101322.89;108016;1280;61897;-88
2022/07/02 14:49:06;;;;;;;0.50;0.30;;;;;;;40.16;15.73;101326.30;108010;1279;76268;-88
2022/07/02 14:51:33;;;;;;;1.40;0.40;;;;;;;40.27;15.43;101317.11;107825;1281;72660;-88
2022/07/02 14:54:00;;;;;;;1.80;0.30;;;;;;;40.81;15.19;101311.61;107837;1280;73117;-88
2022/07/02 14:56:30;;;;;;;1.00;0.30;;;;;;;41.34;14.80;101304.80;107811;1281;61737;-88
2022/07/02 14:58:58;;;;;;;1.30;0.30;;;;;;;41.92;14.49;101298.77;107981;1281;61083;-89
2022/07/02 15:01:25;;;;;;;2.20;0.40;;;;;;;42.39;14.66;101298.88;108004;1279;74960;-88
2022/07/02 15:03:53;;;;;;;1.10;0.40;;;;;;;42.96;13.87;101295.82;108004;1280;71520;-88
2022/07/02 15:06:20;;;;;;;0.90;0.30;;;;;;;42.85;13.57;101287.41;107840;1280;73426;-88
2022/07/02 15:08:47;;;;;;;0.70;0.20;;;;;;;43.14;13.85;101281.02;108180;1281;60687;-89
2022/07/02 15:11:15;;;;;;;1.00;0.30;;;;;;;42.67;13.80;101278.10;108077;1279;59470;-89
2022/07/02 15:16:31;;;;;;;1.50;0.40;;;;;;;40.08;15.17;101274.36;107941;1278;72909;-89
2022/07/02 15:18:58;;;;;;;1.10;0.30;;;;;;;40.53;15.09;101271.76;107850;1280;73297;-89
2022/07/02 15:21:27;;;;;;;1.30;0.60;;;;;;;41.17;15.05;101268.39;107944;1279;61856;-88
2022/07/02 15:23:56;;;;;;;1.90;0.30;;;;;;;41.56;14.59;101273.53;107832;1281;60657;-88
2022/07/02 15:26:23;;;;;;;2.60;0.20;;;;;;;41.18;14.62;101266.17;107940;1279;74201;-86
2022/07/02 15:28:50;;;;;;;5.90;0.50;;;;;;;39.69;15.52;101267.63;107968;1279;72184;-86
2022/07/02 15:31:22;;;;;;;2.10;0.30;;;;;;;38.51;16.37;101261.95;107709;1279;74641;-87
2022/07/02 15:33:49;;;;;;;0.40;0.20;;;;;;;38.51;16.42;101249.81;107712;1279;62691;-87
2022/07/02 15:36:21;;;;;;;1.30;0.30;;;;;;;39.47;16.29;101256.16;107837;1279;60921;-87
2022/07/02 15:38:53;;;;;;;1.60;0.50;;;;;;;39.75;15.49;101247.33;107602;1279;75088;-87
2022/07/02 15:41:25;;;;;;;0.70;0.30;;;;;;;39.37;16.13;101246.38;107863;1279;71480;-87
2022/07/02 15:43:53;;;;;;;1.90;0.30;;;;;;;39.98;16.04;101237.60;107728;1279;73032;-87
2022/07/02 15:46:25;;;;;;;0.70;0.20;;;;;;;40.65;15.30;101231.86;107748;1281;60615;-87
2022/07/02 15:48:56;;;;;;;2.60;0.30;;;;;;;41.44;14.99;101228.21;107905;1279;62866;-88
2022/07/02 15:51:34;;;;;;;1.70;0.30;;;;;;;41.87;14.62;101223.06;107806;1279;74382;-86
2022/07/02 15:54:19;;;;;;;1.20;0.20;;;;;;;42.12;14.34;101226.14;107877;1279;71781;-87
2022/07/02 15:56:48;;;;;;;1.80;0.30;;;;;;;42.15;13.96;101222.73;108011;1279;72221;-88
2022/07/02 15:59:19;;;;;;;0.70;0.20;;;;;;;42.22;14.01;101221.39;107937;1279;61932;-87
2022/07/02 16:01:52;;;;;;;0.60;0.30;;;;;;;42.41;13.36;101223.54;107662;1279;61635;-87
2022/07/02 16:04:31;;;;;;;2.90;0.40;;;;;;;42.55;13.00;101221.95;107980;1279;74913;-88
2022/07/02 16:07:03;;;;;;;0.70;0.30;;;;;;;42.94;12.74;101216.96;107777;1279;71097;-88
2022/07/02 16:09:30;;;;;;;0.70;0.30;;;;;;;43.10;12.81;101210.55;107979;1279;72997;-88
2022/07/02 16:11:58;;;;;;;1.60;0.30;;;;;;;43.03;12.57;101206.81;107928;1279;61894;-87
2022/07/02 16:14:26;;;;;;;1.20;0.40;;;;;;;43.21;12.65;101204.73;107852;1279;60662;-88
2022/07/02 16:16:54;;;;;;;2.70;0.40;;;;;;;43.24;12.56;101204.54;107508;1279;76256;-88
2022/07/02 16:19:22;;;;;;;1.00;0.40;;;;;;;43.01;12.65;101205.52;107682;1279;73855;-85
2022/07/02 16:21:49;;;;;;;2.00;0.40;;;;;;;43.11;13.06;101201.46;107661;1279;72996;-85
2022/07/02 16:24:18;;;;;;;2.00;0.40;;;;;;;43.16;12.60;101195.75;108009;1279;61131;-86
2022/07/02 16:26:47;;;;;;;0.90;0.30;;;;;;;43.11;12.63;101190.52;107824;1279;60337;-86
2022/07/02 16:29:14;;;;;;;1.40;0.30;;;;;;;42.92;13.05;101191.73;107862;1279;75936;-85
2022/07/02 16:31:43;;;;;;;1.00;0.30;;;;;;;42.60;13.08;101185.02;107963;1278;71294;-85
2022/07/02 16:34:32;;;;;;;1.10;0.30;;;;;;;42.52;13.41;101183.52;107988;1279;74273;-85
2022/07/02 16:37:08;;;;;;;1.60;0.40;;;;;;;42.47;13.47;101181.05;107958;1279;59247;-86
2022/07/02 16:39:42;;;;;;;0.70;0.30;;;;;;;42.10;13.68;101184.98;107987;1279;59798;-81
2022/07/02 16:42:10;;;;;;;2.70;0.40;;;;;;;41.66;14.07;101182.88;107915;1279;77079;-87
2022/07/02 16:44:40;;;;;;;1.80;0.40;;;;;;;41.38;14.06;101180.46;107717;1279;71652;-87
2022/07/02 16:47:11;;;;;;;0.90;0.20;;;;;;;41.26;14.26;101172.34;107783;1280;74032;-87
2022/07/02 16:49:45;;;;;;;2.30;0.30;;;;;;;40.93;14.42;101171.13;107615;1279;60894;-88
2022/07/02 16:52:15;;;;;;;1.40;0.40;;;;;;;40.38;15.05;101163.91;107806;1279;61624;-87
2022/07/02 16:54:42;;;;;;;1.40;0.40;;;;;;;39.82;15.42;101160.19;107740;1279;75044;-88
2022/07/02 16:57:13;;;;;;;1.10;0.50;;;;;;;39.24;15.60;101158.60;107842;1278;71199;-88
2022/07/02 16:59:42;;;;;;;2.00;0.30;;;;;;;38.64;16.31;101155.14;107781;1279;75251;-88
2022/07/02 17:02:18;;;;;;;1.10;0.30;;;;;;;38.09;17.00;101153.98;107943;1279;61004;-87
2022/07/02 17:04:47;;;;;;;1.40;0.40;;;;;;;37.88;17.49;101151.39;107969;1279;60683;-88
2022/07/02 17:07:15;;;;;;;1.60;0.30;;;;;;;37.85;17.08;101147.50;107949;1279;77025;-87